Latest Weather Observations for Moss Vale

IDN60801

Issued at 3:32 am EST Monday 24 April 2017 (issued every 30 minutes, with the page automatically refreshed every 10 minutes)

About weather observations | Map of weather stations | Latest weather observations for NSW | Other Formats
Station Details ID: 068239 Name: MOSS VALE AWS Lat: -34.53 Lon: 150.42 Height: 678.4 m
Data from the previous 72 hours. | See also: Recent months at Moss Vale
Date/Time
EST
Temp
°C
App
Temp
°C
Dew
Point
°C
Rel
Hum
%
Delta-T
°C
Wind Press
QNH
hPa
Press
MSL
hPa
Rain since
9am
mm
Dir  Spd
km/h
Gust
km/h
Spd
kts
Gust
kts
24/03:30am 9.2 - - - - CALM 0 0 0 0 1023.1 1021.8 0.2
24/03:00am 9.5 - - - - CALM 0 0 0 0 1023.3 1022.1 0.2
24/02:30am 9.5 - - - - CALM 0 0 0 0 1023.5 1022.3 0.2
24/02:00am 9.7 - - - - CALM 0 0 0 0 1023.8 1022.6 0.2
24/01:30am 9.9 - - - - CALM 0 0 0 0 1024.2 1022.9 0.2
24/01:00am 9.7 - - - - CALM 0 0 0 0 1024.4 1023.1 0.2
24/12:30am 9.8 - - - - CALM 0 0 0 0 1024.5 1023.2 0.2
24/12:00am 10.4 - - - - CALM 0 0 0 0 1024.6 1023.4 0.2
 
Date/Time
EST
Temp
°C
App
Temp
°C
Dew
Point
°C
Rel
Hum
%
Delta-T
°C
Wind Press
QNH
hPa
Press
MSL
hPa
Rain since
9am
mm
Dir  Spd
km/h
Gust
km/h
Spd
kts
Gust
kts
23/11:30pm 10.4 - - - - CALM 0 0 0 0 1024.8 1023.6 0.0
23/11:15pm 10.4 - - - - CALM 0 0 0 0 1025.0 1023.8 0.0
23/11:00pm 10.7 - - - - CALM 0 0 0 0 1025.2 1024.0 0.0
23/10:43pm 10.4 - - - - N 4 7 2 4 1025.2 1024.0 0.0
23/10:30pm 10.2 - - - - N 7 9 4 5 1025.2 1024.0 0.0
23/10:00pm 10.3 - - - - CALM 0 0 0 0 1025.2 1024.0 0.0
23/09:30pm 11.8 - - - - CALM 0 0 0 0 1025.2 1024.0 0.0
23/09:20pm 11.2 - - - - NNW 4 7 2 4 1025.2 1024.0 0.0
23/09:00pm 12.6 - - - - NW 6 6 3 3 1025.2 1024.0 0.0
23/08:30pm 12.6 - - - - WNW 7 9 4 5 1025.1 1023.9 0.0
23/08:01pm 13.0 13.2 13.0 100 0.0 SE 4 6 2 3 1025.0 1023.8 0.0
23/08:00pm 13.0 13.2 13.0 100 0.0 SE 4 6 2 3 1025.0 1023.8 0.0
23/07:30pm 13.3 12.6 13.3 100 0.0 SSE 9 11 5 6 1024.9 1023.7 0.0
23/07:01pm 14.0 13.9 14.0 100 0.0 SE 7 9 4 5 1024.6 1023.4 0.0
23/07:00pm 14.0 13.9 14.0 100 0.0 SE 7 9 4 5 1024.6 1023.4 0.0
23/06:30pm 13.9 13.0 13.7 99 0.1 ESE 11 13 6 7 1024.3 1023.0 0.0
23/06:11pm 14.1 12.7 12.1 88 1.1 SE 11 13 6 7 1023.9 1022.7 0.0
23/06:00pm 14.4 13.7 11.9 85 1.4 ESE 7 11 4 6 1023.8 1022.6 0.0
23/05:30pm 14.9 13.7 11.7 81 1.8 SE 9 13 5 7 1023.5 1022.3 0.0
23/05:00pm 16.1 14.0 12.3 78 2.1 ESE 15 20 8 11 1023.3 1022.1 0.0
23/04:30pm 17.1 14.5 12.0 72 2.9 SE 17 22 9 12 1023.0 1021.7 0.0
23/04:00pm 18.1 15.7 11.4 65 3.8 ESE 15 19 8 10 1022.9 1021.6 0.0
23/03:30pm 19.0 16.8 10.8 59 4.6 ESE 13 19 7 10 1022.9 1021.6 0.0
23/03:00pm 19.0 16.5 9.8 55 5.0 SE 13 22 7 12 1022.9 1021.6 0.0
23/02:30pm 19.7 16.9 8.7 49 5.9 SSW 13 19 7 10 1023.0 1021.7 0.0
23/02:00pm 19.9 19.1 11.7 59 4.7 S 7 13 4 7 1023.1 1021.8 0.0
23/01:30pm 18.9 16.8 9.7 55 5.0 SSE 11 19 6 10 1023.1 1021.8 0.0
23/01:00pm 18.7 17.4 11.3 62 4.2 S 9 13 5 7 1023.4 1022.2 0.0
23/12:30pm 18.6 16.6 10.2 58 4.6 SW 11 17 6 9 1023.7 1022.5 0.0
23/12:00pm 18.5 15.6 9.6 56 4.8 SW 15 24 8 13 1024.0 1022.8 0.0
23/11:30am 18.6 15.3 9.4 55 5.0 SSW 17 20 9 11 1024.6 1023.4 0.0
23/11:00am 18.8 17.0 12.1 65 3.8 W 13 17 7 9 1024.9 1023.7 0.0
23/10:30am 17.7 16.1 11.7 68 3.4 WSW 11 15 6 8 1025.3 1024.1 0.0
23/10:00am 16.7 14.7 11.6 72 2.9 W 13 17 7 9 1025.5 1024.3 0.0
23/09:30am 15.3 14.7 12.2 82 1.7 WNW 7 11 4 6 1025.5 1024.3 0.0
23/09:00am 13.3 12.7 12.4 94 0.5 W 7 9 4 5 1025.6 1024.4 13.2
23/08:30am 11.5 - - - - CALM 0 9 0 5 1025.4 1024.2 13.2
23/08:00am 10.1 - - - - CALM 0 7 0 4 1025.4 1024.2 13.2
23/07:42am 8.4 - - - - CALM 0 0 0 0 1025.4 1024.2 13.2
23/07:30am 7.2 - - - - CALM 0 0 0 0 1025.3 1024.1 13.2
23/07:00am 6.9 - - - - CALM 0 6 0 3 1025.0 1023.8 13.2
23/06:41am 6.8 - - - - CALM 0 0 0 0 1024.8 1023.6 13.2
23/06:30am 6.7 - - - - CALM 0 0 0 0 1024.7 1023.5 13.2
23/06:00am 6.3 - - - - CALM 0 0 0 0 1024.6 1023.4 13.2
23/05:30am 6.9 - - - - CALM 0 0 0 0 1024.4 1023.1 13.2
23/05:00am 7.2 - - - - CALM 0 0 0 0 1024.2 1022.9 13.2
23/04:30am 6.9 - - - - CALM 0 0 0 0 1024.0 1022.8 13.2
23/04:00am 7.1 - - - - CALM 0 0 0 0 1023.9 1022.7 13.2
23/03:30am 7.2 - - - - CALM 0 0 0 0 1023.9 1022.7 13.2
23/03:00am 7.9 - - - - CALM 0 0 0 0 1023.9 1022.7 13.2
23/02:30am 8.4 - - - - CALM 0 0 0 0 1024.0 1022.8 13.2
23/02:00am 8.1 - - - - CALM 0 0 0 0 1024.4 1023.1 13.2
23/01:30am 7.7 - - - - CALM 0 0 0 0 1024.6 1023.4 13.2
23/01:00am 8.5 - - - - CALM 0 0 0 0 1024.7 1023.5 13.0
23/12:43am 9.3 - - - - CALM 0 0 0 0 1024.7 1023.5 13.0
23/12:30am 8.6 - - - - W 6 7 3 4 1024.8 1023.6 13.0
23/12:00am 9.2 - - - - CALM 0 0 0 0 1025.0 1023.8 13.0
 
Date/Time
EST
Temp
°C
App
Temp
°C
Dew
Point
°C
Rel
Hum
%
Delta-T
°C
Wind Press
QNH
hPa
Press
MSL
hPa
Rain since
9am
mm
Dir  Spd
km/h
Gust
km/h
Spd
kts
Gust
kts
22/11:47pm 9.4 - - - - CALM 0 0 0 0 1025.1 1023.9 13.0
22/11:42pm 10.1 - - - - CALM 0 0 0 0 1025.1 1023.9 13.0
22/11:30pm 10.1 - - - - CALM 0 0 0 0 1025.1 1023.9 13.0
22/11:26pm 9.3 - - - - CALM 0 0 0 0 1025.1 1023.9 13.0
22/11:22pm 9.4 - - - - CALM 0 0 0 0 1025.1 1023.9 13.0
22/11:00pm 9.7 - - - - CALM 0 0 0 0 1025.3 1024.1 13.0
22/10:40pm 10.1 - - - - NE 6 7 3 4 1025.3 1024.1 13.0
22/10:30pm 9.9 - - - - CALM 0 0 0 0 1025.3 1024.1 13.0
22/10:00pm 11.4 - - - - CALM 0 0 0 0 1025.6 1024.4 13.0
22/09:30pm 11.5 - - - - CALM 0 0 0 0 1025.5 1024.3 13.0
22/09:00pm 11.9 - - - - CALM 0 0 0 0 1025.4 1024.2 13.0
22/08:34pm 12.2 - - - - CALM 0 0 0 0 1025.4 1024.2 13.0
22/08:30pm 12.5 - - - - CALM 0 0 0 0 1025.3 1024.1 13.0
22/08:11pm 12.4 - - - - CALM 0 0 0 0 1025.3 1024.1 13.0
22/08:00pm 12.4 - - - - CALM 0 0 0 0 1025.2 1024.0 13.0
22/07:46pm 12.7 - - - - CALM 0 0 0 0 1025.1 1023.9 13.0
22/07:30pm 12.7 13.5 12.7 100 0.0 CALM 0 0 0 0 1025.1 1023.9 13.0
22/07:00pm 13.0 13.9 13.0 100 0.0 CALM 0 0 0 0 1025.0 1023.8 13.0
22/06:30pm 13.0 13.9 12.8 99 0.1 CALM 0 0 0 0 1024.9 1023.7 13.0
22/06:00pm 13.1 14.1 13.1 100 0.0 CALM 0 0 0 0 1024.8 1023.6 13.0
22/05:30pm 13.5 13.8 11.0 85 1.4 CALM 0 0 0 0 1024.6 1023.4 13.0
22/05:00pm 13.9 12.6 11.2 84 1.5 NE 9 11 5 6 1024.7 1023.5 13.0
22/04:30pm 14.2 13.1 12.1 87 1.2 ENE 9 11 5 6 1024.8 1023.6 13.0
22/04:00pm 13.9 13.3 13.4 97 0.3 ESE 9 15 5 8 1024.8 1023.6 13.0
22/03:30pm 14.0 12.3 13.7 98 0.2 NE 15 20 8 11 1024.5 1023.2 13.0
22/03:04pm 14.0 11.7 13.1 94 0.5 NE 17 22 9 12 1024.3 1023.0 13.0
22/03:00pm 14.1 12.5 13.8 98 0.2 ENE 15 19 8 10 1024.4 1023.1 13.0
22/02:30pm 14.2 12.2 13.9 98 0.2 N 17 20 9 11 1024.8 1023.6 7.8
22/02:08pm 15.1 11.6 10.9 76 2.3 ENE 20 24 11 13 1024.2 1022.9 0.4
22/02:00pm 15.6 11.8 11.0 74 2.5 ENE 22 28 12 15 1024.3 1023.0 0.0
22/01:30pm 17.3 15.3 12.6 74 2.7 ESE 15 19 8 10 1024.5 1023.2 0.0
22/01:00pm 17.4 15.3 11.2 67 3.5 SE 13 17 7 9 1024.7 1023.5 0.0
22/12:30pm 17.8 16.3 12.0 69 3.3 SSE 11 13 6 7 1025.1 1023.9 0.0
22/12:00pm 18.3 17.5 11.8 66 3.7 ESE 7 11 4 6 1025.6 1024.4 0.0
22/11:30am 18.8 17.5 11.4 62 4.2 SE 9 13 5 7 1026.0 1024.8 0.0
22/11:00am 18.2 16.9 11.3 64 3.9 SSW 9 15 5 8 1026.3 1025.1 0.0
22/10:30am 18.0 17.4 11.8 67 3.5 SSE 6 11 3 6 1026.6 1025.4 0.0
22/10:00am 17.1 15.9 11.6 70 3.1 SW 9 13 5 7 1026.8 1025.6 0.0
22/09:30am 17.2 16.6 12.3 73 2.8 N 7 9 4 5 1027.2 1026.1 0.0
22/09:00am 14.9 15.7 13.8 93 0.6 NW 2 6 1 3 1027.1 1026.0 0.0
22/08:30am 14.5 14.6 14.5 100 0.0 N 7 11 4 6 1027.2 1026.1 -
22/08:00am 13.6 - - - - S 6 9 3 5 1026.8 1025.6 -
22/07:30am 13.1 - - - - SE 7 9 4 5 1026.5 1025.3 -
22/07:00am 12.3 11.3 12.3 100 0.0 NE 9 11 5 6 1026.5 1025.3 -
22/06:30am 12.7 13.5 12.7 100 0.0 CALM 0 0 0 0 1026.2 1025.0 -
22/06:00am 12.6 - - - - NNE 7 11 4 6 1026.1 1024.9 -
22/05:30am 13.1 12.9 13.1 100 0.0 NNE 6 7 3 4 1026.0 1024.8 -
22/05:00am 13.1 - - - - ENE 6 7 3 4 1025.5 1024.3 -
22/04:30am 12.9 12.7 12.9 100 0.0 W 6 9 3 5 1025.3 1024.1 -
22/04:00am 13.4 13.1 13.4 100 0.0 W 7 9 4 5 1025.4 1024.2 -
22/03:30am 13.2 12.8 12.9 98 0.2 SW 7 9 4 5 1025.5 1024.3 -
22/03:00am 13.8 12.5 13.8 100 0.0 NNW 13 17 7 9 1025.6 1024.4 0.0
22/02:30am 13.4 - - - - N 13 15 7 8 1026.0 1024.8 -
22/02:00am 13.6 13.4 13.6 100 0.0 N 7 11 4 6 1026.1 1024.9 -
22/01:48am 13.7 - - - - N 15 20 8 11 1026.3 1025.1 -
22/01:30am 13.9 - - - - N 13 17 7 9 1026.5 1025.3 -
22/01:00am 13.8 13.7 13.8 100 0.0 N 7 9 4 5 1026.7 1025.5 -
22/12:44am 13.7 13.2 13.7 100 0.0 N 9 13 5 7 1026.8 1025.6 -
22/12:30am 13.9 13.1 13.9 100 0.0 N 11 17 6 9 1026.8 1025.6 -
22/12:00am 14.1 12.9 13.9 99 0.1 NNE 13 19 7 10 1026.6 1025.4 -
 
Date/Time
EST
Temp
°C
App
Temp
°C
Dew
Point
°C
Rel
Hum
%
Delta-T
°C
Wind Press
QNH
hPa
Press
MSL
hPa
Rain since
9am
mm
Dir  Spd
km/h
Gust
km/h
Spd
kts
Gust
kts
21/11:30pm 14.2 11.7 14.0 99 0.1 N 20 28 11 15 1026.7 1025.5 -
21/11:25pm 14.1 11.8 14.1 100 0.0 N 19 28 10 15 1026.9 1025.7 -
21/11:00pm 14.2 12.6 14.0 99 0.1 NNE 15 20 8 11 1027.0 1025.8 -
21/10:30pm 14.1 13.3 14.1 100 0.0 N 11 19 6 10 1027.1 1026.0 -
21/10:00pm 14.1 12.2 14.1 100 0.0 NNE 17 22 9 12 1027.0 1025.8 -
21/09:30pm 13.7 12.0 13.7 100 0.0 ENE 15 20 8 11 1026.9 1025.7 -
21/09:27pm 13.7 12.0 13.7 100 0.0 ENE 15 19 8 10 1026.9 1025.7 -
21/09:00pm 13.9 12.6 13.7 99 0.1 NNE 13 19 7 10 1027.2 1026.1 0.0
21/08:51pm 13.9 12.6 13.6 98 0.2 NNE 13 17 7 9 1027.2 1026.1 -
21/08:30pm 14.3 12.2 13.7 96 0.3 NE 17 22 9 12 1027.1 1026.0 -
21/08:10pm 14.6 12.3 14.0 96 0.3 NE 19 24 10 13 1026.9 1025.7 -
21/08:00pm 14.5 12.4 12.4 87 1.2 NE 15 20 8 11 1026.9 1025.7 -
21/07:30pm 14.4 12.8 11.4 82 1.7 NE 11 15 6 8 1026.9 1025.7 -
21/07:00pm 14.3 13.5 11.1 81 1.7 NE 6 9 3 5 1026.6 1025.4 -
21/06:30pm 14.3 13.0 11.3 82 1.7 NNE 9 15 5 8 1026.7 1025.5 -
21/06:00pm 14.7 13.0 11.1 79 2.0 NE 11 17 6 9 1026.5 1025.3 -
21/05:30pm 15.1 13.0 11.1 77 2.2 NE 13 19 7 10 1026.2 1025.0 -
21/05:00pm 15.9 13.5 11.5 75 2.4 NE 15 19 8 10 1026.2 1025.0 -
21/04:30pm 16.1 13.7 11.5 74 2.6 NNE 15 17 8 9 1026.3 1025.1 -
21/04:00pm 16.6 14.3 11.7 73 2.7 NNE 15 19 8 10 1026.2 1025.0 -
21/03:30pm 16.8 13.5 11.5 71 3.0 NNE 20 26 11 14 1026.3 1025.1 -
21/03:00pm 16.8 13.7 11.5 71 3.0 NNE 19 24 10 13 1026.3 1025.1 -
21/02:30pm 17.4 14.3 11.7 69 3.2 NNE 19 22 10 12 1026.4 1025.2 -
21/02:00pm 17.4 13.3 11.4 68 3.4 NNE 24 32 13 17 1026.5 1025.3 -
21/01:30pm 17.5 13.7 11.3 67 3.5 NNE 22 32 12 17 1026.7 1025.5 -
21/01:00pm 17.5 14.3 12.0 70 3.1 NNE 20 28 11 15 1026.9 1025.7 -
21/12:30pm 17.4 14.0 11.4 68 3.4 NNE 20 28 11 15 - - -
21/12:00pm 17.2 13.2 10.3 64 3.8 NNE 22 28 12 15 - - -
21/11:30am 17.3 11.8 9.2 59 4.4 N 28 37 15 20 - - -
21/10:30am 17.3 13.5 11.1 67 3.5 N 22 30 12 16 - - 0.0
21/10:00am 16.1 12.0 10.0 67 3.3 N 22 30 12 16 - - 0.0
21/09:30am 15.6 12.2 10.4 71 2.8 N 19 24 10 13 - - 0.0
21/09:00am 15.2 10.4 10.2 72 2.7 NNE 26 33 14 18 - - -
21/08:30am 15.2 10.7 10.0 71 2.8 NNE 24 35 13 19 - - -
21/08:00am 14.3 10.4 9.5 73 2.6 NNE 20 26 11 14 - - -
21/07:30am 12.9 9.8 9.0 77 2.0 NNE 15 19 8 10 - - -
21/07:00am 10.5 6.7 7.4 81 1.5 NNE 17 17 9 9 - - -
21/06:30am 9.8 6.1 6.3 79 1.7 NNE 15 17 8 9 - - -
21/06:00am 9.5 6.5 5.9 78 1.7 NNE 11 13 6 7 - - -
21/05:30am 10.2 8.2 6.9 80 1.6 NE 7 9 4 5 - - -
21/05:00am 10.1 8.1 7.3 83 1.4 NE 7 11 4 6 - - -
21/04:30am 10.5 7.4 7.2 80 1.6 ENE 13 15 7 8 - - -
21/04:00am 11.4 9.3 8.1 80 1.7 NE 9 11 5 6 - - -

Other Formats:

Comma delimited format used in spreadsheet applications
http://www.bom.gov.au/fwo/IDN60801/IDN60801.94746.axf

JavaScript Object Notation format (JSON) in row-major order
http://www.bom.gov.au/fwo/IDN60801/IDN60801.94746.json